Time;durP1;ratioP1;P1;durP2;ratioP2;P2;SDS_P1;SDS_P2;PMS_P1;PMS_P2;Temp;Humidity;BMP_temperature;BMP_pressure;BME280_temperature;BME280_humidity;BME280_pressure;Samples;Min_cycle;Max_cycle;Signal;HPM_P1;HPM_P2
2023/06/23 00:00:11;;;;;;;14.85;12.15;;;21.30;97.90;;;;;;5015601;28;20439;-72
2023/06/23 00:02:37;;;;;;;15.13;12.05;;;21.30;97.80;;;;;;5015919;28;20022;-72
2023/06/23 00:05:03;;;;;;;14.95;11.80;;;21.30;97.80;;;;;;5015658;28;20075;-72
2023/06/23 00:07:29;;;;;;;14.98;11.68;;;21.30;97.90;;;;;;5016041;28;20054;-72
2023/06/23 00:09:55;;;;;;;14.85;10.98;;;21.30;97.90;;;;;;5015210;28;20073;-72
2023/06/23 00:12:20;;;;;;;14.27;10.93;;;21.30;97.80;;;;;;5015446;28;20510;-71
2023/06/23 00:14:46;;;;;;;12.90;11.48;;;21.20;97.70;;;;;;5015432;28;20030;-71
2023/06/23 00:17:11;;;;;;;17.95;10.45;;;21.20;97.70;;;;;;5015261;28;20029;-71
2023/06/23 00:19:38;;;;;;;16.02;11.43;;;21.20;97.80;;;;;;5015389;28;20030;-71
2023/06/23 00:22:03;;;;;;;13.07;10.77;;;21.20;97.70;;;;;;5015277;28;20018;-71
2023/06/23 00:24:30;;;;;;;12.18;10.68;;;21.20;97.80;;;;;;5015213;28;20022;-71
2023/06/23 00:26:56;;;;;;;16.00;11.30;;;21.20;97.70;;;;;;5015199;28;20030;-71
2023/06/23 00:29:22;;;;;;;13.90;10.50;;;21.10;97.60;;;;;;5015052;28;20044;-71
2023/06/23 00:31:49;;;;;;;12.88;10.38;;;21.10;97.70;;;;;;5015114;28;20464;-71
2023/06/23 00:34:15;;;;;;;12.90;11.05;;;21.10;97.70;;;;;;5015101;28;20061;-71
2023/06/23 00:36:41;;;;;;;15.73;10.77;;;21.10;98.00;;;;;;5014960;28;20510;-71
2023/06/23 00:39:08;;;;;;;13.18;10.48;;;21.10;97.70;;;;;;5014473;28;20030;-71
2023/06/23 00:41:34;;;;;;;13.43;10.55;;;21.10;97.80;;;;;;5014980;28;20025;-71
2023/06/23 00:44:00;;;;;;;12.70;11.25;;;21.10;97.70;;;;;;4997416;28;20150;-71
2023/06/23 00:46:27;;;;;;;13.20;10.95;;;21.00;97.60;;;;;;5014721;28;20168;-71
2023/06/23 00:48:53;;;;;;;17.52;11.10;;;21.00;97.60;;;;;;5014843;28;20045;-71
2023/06/23 00:51:22;;;;;;;15.63;11.45;;;21.00;97.80;;;;;;5014499;28;20033;-71
2023/06/23 00:53:48;;;;;;;15.93;11.45;;;21.00;97.70;;;;;;5014512;28;20018;-71
2023/06/23 00:56:21;;;;;;;14.10;11.07;;;21.00;97.70;;;;;;5014638;28;20029;-70
2023/06/23 00:58:48;;;;;;;14.07;11.15;;;20.90;97.90;;;;;;5014663;28;20073;-71
2023/06/23 01:01:13;;;;;;;18.17;11.65;;;20.90;97.80;;;;;;5014764;28;20029;-71
2023/06/23 01:03:40;;;;;;;13.48;10.65;;;20.90;97.80;;;;;;5014479;28;20025;-71
2023/06/23 01:06:49;;;;;;;13.35;11.15;;;20.90;97.90;;;;;;5014440;28;20037;-71
2023/06/23 01:09:56;;;;;;;13.57;10.68;;;20.90;97.90;;;;;;5013863;28;20466;-71
2023/06/23 01:12:30;;;;;;;15.18;11.07;;;20.90;97.80;;;;;;4966343;28;20042;-71
2023/06/23 01:15:28;;;;;;;18.35;11.45;;;20.90;97.80;;;;;;5014446;28;20029;-71
2023/06/23 01:18:04;;;;;;;12.43;11.13;;;20.90;97.80;;;;;;5014445;28;20026;-71
2023/06/23 01:20:35;;;;;;;12.20;10.35;;;20.80;97.80;;;;;;5014271;28;20018;-71
2023/06/23 01:23:25;;;;;;;11.65;10.43;;;20.80;97.80;;;;;;5013961;28;20022;-71
2023/06/23 01:26:24;;;;;;;11.52;10.27;;;20.70;97.70;;;;;;5014230;28;20053;-71
2023/06/23 01:28:55;;;;;;;12.93;9.68;;;20.70;97.70;;;;;;5014187;28;20061;-71
2023/06/23 01:31:45;;;;;;;11.88;10.13;;;20.70;97.60;;;;;;5013993;28;20018;-71
2023/06/23 01:34:23;;;;;;;11.95;9.27;;;20.70;97.70;;;;;;5014010;28;20030;-71
2023/06/23 01:37:01;;;;;;;12.90;10.82;;;20.70;97.70;;;;;;5013785;28;20037;-71
2023/06/23 01:39:32;;;;;;;16.38;10.80;;;20.70;97.70;;;;;;5014040;28;20037;-71
2023/06/23 01:42:02;;;;;;;15.35;11.88;;;20.70;97.70;;;;;;5013892;28;20070;-71
2023/06/23 01:44:30;;;;;;;13.10;11.10;;;20.70;97.70;;;;;;5013860;28;20018;-71
2023/06/23 01:46:59;;;;;;;19.10;12.25;;;20.60;97.60;;;;;;5013848;28;20106;-71
2023/06/23 01:49:28;;;;;;;17.08;12.75;;;20.60;97.70;;;;;;5013680;28;20041;-71
2023/06/23 01:51:55;;;;;;;17.70;11.90;;;20.60;97.80;;;;;;5013493;28;20014;-71
2023/06/23 01:54:22;;;;;;;14.07;12.63;;;20.60;97.70;;;;;;5013610;28;20467;-71
2023/06/23 01:56:49;;;;;;;16.45;14.25;;;20.50;97.70;;;;;;5013747;28;20080;-71
2023/06/23 01:59:17;;;;;;;19.85;14.68;;;20.50;97.70;;;;;;5013438;28;20047;-71
2023/06/23 02:01:44;;;;;;;17.42;15.57;;;20.50;97.80;;;;;;5022748;28;20538;-71
2023/06/23 02:04:11;;;;;;;18.27;15.25;;;20.50;97.80;;;;;;5032309;28;20034;-70
2023/06/23 02:06:38;;;;;;;19.17;14.68;;;20.50;97.80;;;;;;5032024;28;20022;-71
2023/06/23 02:09:09;;;;;;;17.02;15.32;;;20.50;97.90;;;;;;5023080;28;20033;-70
2023/06/23 02:11:35;;;;;;;17.58;14.65;;;20.40;97.90;;;;;;5032553;28;20068;-70
2023/06/23 02:14:01;;;;;;;19.35;16.13;;;20.40;98.00;;;;;;5031212;28;20064;-71
2023/06/23 02:16:29;;;;;;;21.90;17.15;;;20.40;98.00;;;;;;5033294;28;20057;-70
2023/06/23 02:18:56;;;;;;;18.42;16.52;;;20.40;97.90;;;;;;5030896;28;20024;-70
2023/06/23 02:21:26;;;;;;;18.80;16.45;;;20.40;98.30;;;;;;5031931;28;20037;-72
2023/06/23 02:23:53;;;;;;;20.00;16.67;;;20.40;98.00;;;;;;5026653;28;20029;-71
2023/06/23 02:26:22;;;;;;;19.52;16.42;;;20.30;97.90;;;;;;5028180;28;20029;-71
2023/06/23 02:28:50;;;;;;;24.75;18.25;;;20.30;97.90;;;;;;5029226;28;20112;-71
2023/06/23 02:31:25;;;;;;;18.80;16.80;;;20.30;98.00;;;;;;5033106;28;20021;-70
2023/06/23 02:33:52;;;;;;;23.25;19.35;;;20.30;98.00;;;;;;5031683;28;20113;-71
2023/06/23 02:36:22;;;;;;;21.98;18.98;;;20.30;98.10;;;;;;5031057;28;20032;-70
2023/06/23 02:38:54;;;;;;;23.73;19.77;;;20.30;98.10;;;;;;5032530;28;20385;-73
2023/06/23 02:41:22;;;;;;;25.08;19.20;;;20.30;98.10;;;;;;5031327;28;20028;-71
2023/06/23 02:43:51;;;;;;;24.92;19.92;;;20.20;98.10;;;;;;5032819;28;20075;-71
2023/06/23 02:46:19;;;;;;;21.70;19.42;;;20.20;98.10;;;;;;5033037;28;20148;-71
2023/06/23 02:48:48;;;;;;;22.88;20.45;;;20.20;98.10;;;;;;5031561;28;20458;-71
2023/06/23 02:51:18;;;;;;;23.30;20.88;;;20.20;98.10;;;;;;5031061;28;20029;-71
2023/06/23 02:54:09;;;;;;;23.23;20.65;;;20.20;98.10;;;;;;5032510;28;20091;-71
2023/06/23 02:56:40;;;;;;;23.92;21.25;;;20.20;98.20;;;;;;5032846;28;20021;-71
2023/06/23 02:59:09;;;;;;;26.15;22.88;;;20.20;98.20;;;;;;5032485;28;20033;-71
2023/06/23 03:01:39;;;;;;;24.75;21.77;;;20.10;98.30;;;;;;5032728;28;20466;-71
2023/06/23 03:04:05;;;;;;;24.33;21.73;;;20.10;98.30;;;;;;5032617;28;20025;-71
2023/06/23 03:06:36;;;;;;;25.38;22.67;;;20.10;98.30;;;;;;5032668;28;20033;-71
2023/06/23 03:09:03;;;;;;;23.55;21.15;;;20.10;98.30;;;;;;5030286;28;20121;-72
2023/06/23 03:11:33;;;;;;;26.23;23.52;;;20.10;98.30;;;;;;5032536;28;20486;-71
2023/06/23 03:13:59;;;;;;;28.00;23.02;;;20.10;98.30;;;;;;5032022;28;20034;-71
2023/06/23 03:17:05;;;;;;;27.40;23.45;;;20.10;98.40;;;;;;5034195;28;20018;-71
2023/06/23 03:19:46;;;;;;;32.05;22.85;;;20.00;98.40;;;;;;5027804;28;20032;-71
2023/06/23 03:22:20;;;;;;;26.77;23.70;;;20.00;98.40;;;;;;5035784;28;20463;-71
2023/06/23 03:24:53;;;;;;;28.77;25.13;;;20.00;98.40;;;;;;5034445;28;20013;-71
2023/06/23 03:27:22;;;;;;;27.02;23.77;;;20.00;98.40;;;;;;5034602;28;20029;-71
2023/06/23 03:29:53;;;;;;;36.60;26.58;;;20.00;98.50;;;;;;5035894;28;20471;-71
2023/06/23 03:32:25;;;;;;;27.80;24.88;;;19.90;98.50;;;;;;5035900;28;20385;-71
2023/06/23 03:35:13;;;;;;;32.33;25.90;;;19.90;98.50;;;;;;5035612;28;20021;-71
2023/06/23 03:37:45;;;;;;;31.23;25.52;;;19.90;98.50;;;;;;5035863;28;20022;-71
2023/06/23 03:40:14;;;;;;;31.35;26.95;;;19.90;98.60;;;;;;5035706;28;20025;-71
2023/06/23 03:42:46;;;;;;;31.50;26.90;;;19.90;98.90;;;;;;5035874;28;20039;-71
2023/06/23 03:45:13;;;;;;;30.30;27.10;;;19.90;98.70;;;;;;5035672;28;20025;-71
2023/06/23 03:47:42;;;;;;;29.30;26.15;;;19.90;98.70;;;;;;5035497;28;20378;-71
2023/06/23 03:50:12;;;;;;;31.67;28.33;;;19.90;98.80;;;;;;5035631;28;20030;-71
2023/06/23 03:52:40;;;;;;;30.83;27.52;;;19.90;98.80;;;;;;5035571;28;20032;-71
2023/06/23 03:55:09;;;;;;;30.55;27.38;;;19.90;98.80;;;;;;5035494;28;20021;-71
2023/06/23 03:57:36;;;;;;;32.20;27.77;;;19.80;98.90;;;;;;5017712;28;20032;-71
2023/06/23 04:00:03;;;;;;;32.63;26.92;;;19.80;98.90;;;;;;5035503;28;20036;-71
2023/06/23 04:02:31;;;;;;;33.97;27.75;;;19.80;98.90;;;;;;5035316;28;20022;-71
2023/06/23 04:04:59;;;;;;;34.03;28.38;;;19.80;98.90;;;;;;5035283;28;20029;-72
2023/06/23 04:07:26;;;;;;;30.40;27.20;;;19.80;99.00;;;;;;5017737;28;20035;-71
2023/06/23 04:09:53;;;;;;;31.98;28.23;;;19.80;99.00;;;;;;5035209;28;20041;-71
2023/06/23 04:12:21;;;;;;;31.58;28.38;;;19.80;99.00;;;;;;5035286;28;20018;-71
2023/06/23 04:14:49;;;;;;;31.02;27.65;;;19.80;99.00;;;;;;5035202;28;20044;-73
2023/06/23 04:17:17;;;;;;;31.08;26.55;;;19.70;99.10;;;;;;5034931;28;20360;-71
2023/06/23 04:19:46;;;;;;;31.48;27.88;;;19.80;99.10;;;;;;5035199;28;20466;-71
2023/06/23 04:22:14;;;;;;;30.08;27.02;;;19.80;99.20;;;;;;5017420;28;20049;-71
2023/06/23 04:24:40;;;;;;;37.80;29.52;;;19.80;99.20;;;;;;5035093;28;20071;-71
2023/06/23 04:27:10;;;;;;;28.17;24.60;;;19.70;99.30;;;;;;5034386;28;20202;-71
2023/06/23 04:29:36;;;;;;;26.23;23.58;;;19.80;99.10;;;;;;5034842;28;20036;-71
2023/06/23 04:32:02;;;;;;;27.55;24.60;;;19.80;99.00;;;;;;5034616;28;20452;-71
2023/06/23 04:34:28;;;;;;;26.65;23.80;;;19.70;99.00;;;;;;5034848;28;20555;-70
2023/06/23 04:37:07;;;;;;;28.33;24.17;;;19.80;99.00;;;;;;5034861;28;20431;-71
2023/06/23 04:39:45;;;;;;;25.88;23.27;;;19.80;99.10;;;;;;5034746;28;20445;-70
2023/06/23 04:42:13;;;;;;;27.38;24.50;;;19.80;99.10;;;;;;5034594;28;20501;-72
2023/06/23 04:44:47;;;;;;;27.00;24.27;;;19.80;99.00;;;;;;5034586;28;20026;-72
2023/06/23 04:47:15;;;;;;;29.60;24.20;;;19.80;99.10;;;;;;5034268;28;20176;-72
2023/06/23 04:49:44;;;;;;;25.95;22.50;;;19.80;99.10;;;;;;5034553;28;20036;-72
2023/06/23 04:52:14;;;;;;;25.67;23.08;;;19.80;99.30;;;;;;5034503;28;20462;-72
2023/06/23 04:54:44;;;;;;;26.38;23.65;;;19.80;99.40;;;;;;5034533;28;20033;-71
2023/06/23 04:57:16;;;;;;;26.17;23.20;;;19.80;99.40;;;;;;5034449;28;20021;-71
2023/06/23 04:59:45;;;;;;;;;;;19.80;99.40;;;;;;5034593;28;20104;-72
2023/06/23 05:02:12;;;;;;;26.05;23.27;;;19.90;99.00;;;;;;5033999;28;19951;-72
2023/06/23 05:04:40;;;;;;;31.27;24.80;;;19.90;99.40;;;;;;5033920;28;20029;-71
2023/06/23 05:07:07;;;;;;;25.45;22.67;;;19.90;99.40;;;;;;5015425;28;20021;-72
2023/06/23 05:09:34;;;;;;;26.67;23.88;;;19.90;99.40;;;;;;5033918;28;20042;-72
2023/06/23 05:12:01;;;;;;;25.05;22.55;;;19.90;99.50;;;;;;5034143;28;20076;-72
2023/06/23 05:14:30;;;;;;;25.55;22.80;;;19.90;99.60;;;;;;5033897;28;20131;-72
2023/06/23 05:16:59;;;;;;;26.45;23.42;;;19.90;99.50;;;;;;5034027;28;20025;-72
2023/06/23 05:19:30;;;;;;;26.25;22.50;;;19.90;99.70;;;;;;5033985;28;20026;-72
2023/06/23 05:21:58;;;;;;;25.95;23.35;;;19.90;99.70;;;;;;5033925;28;20390;-72
2023/06/23 05:24:25;;;;;;;26.42;23.83;;;19.90;99.70;;;;;;5034174;28;20032;-72
2023/06/23 05:26:57;;;;;;;26.50;23.55;;;20.00;99.80;;;;;;5033846;28;20048;-72
2023/06/23 05:29:24;;;;;;;24.70;22.23;;;19.90;99.80;;;;;;5033359;28;20030;-72
2023/06/23 05:31:51;;;;;;;25.25;22.70;;;20.00;99.80;;;;;;5033647;28;20688;-72
2023/06/23 05:34:18;;;;;;;25.67;22.23;;;20.00;99.80;;;;;;5033847;28;20103;-72
2023/06/23 05:36:46;;;;;;;26.58;23.38;;;20.00;99.90;;;;;;5033606;28;20070;-72
2023/06/23 05:39:15;;;;;;;26.48;23.85;;;20.00;99.90;;;;;;5033154;28;20104;-72
2023/06/23 05:41:41;;;;;;;26.25;23.10;;;20.00;99.90;;;;;;5033622;28;20498;-72
2023/06/23 05:44:06;;;;;;;27.38;24.67;;;20.10;99.90;;;;;;5033313;28;20510;-72
2023/06/23 05:46:37;;;;;;;28.05;25.17;;;20.10;99.90;;;;;;5032644;28;20075;-72
2023/06/23 05:49:08;;;;;;;28.75;25.70;;;20.20;99.90;;;;;;5033347;28;20032;-72
2023/06/23 05:51:35;;;;;;;32.50;25.90;;;20.20;99.90;;;;;;5033353;28;20432;-73
2023/06/23 05:54:08;;;;;;;30.25;27.05;;;20.30;99.90;;;;;;5031074;28;20394;-72
2023/06/23 05:56:48;;;;;;;28.30;25.38;;;20.40;99.90;;;;;;5026010;28;20108;-72
2023/06/23 05:59:23;;;;;;;25.67;22.92;;;20.40;99.90;;;;;;5027933;28;20490;-72
2023/06/23 06:01:54;;;;;;;24.08;21.75;;;20.50;99.90;;;;;;5028882;28;20022;-73
2023/06/23 06:04:23;;;;;;;25.52;22.83;;;20.60;99.90;;;;;;5032822;28;20489;-75
2023/06/23 06:06:51;;;;;;;25.45;21.40;;;20.60;99.90;;;;;;5032277;28;20068;-74
2023/06/23 06:09:18;;;;;;;24.45;21.92;;;20.70;99.90;;;;;;5029298;28;20052;-74
2023/06/23 06:11:46;;;;;;;23.95;21.55;;;20.80;99.90;;;;;;5030979;28;20079;-73
2023/06/23 06:14:14;;;;;;;23.60;21.17;;;20.80;99.90;;;;;;5031718;28;20033;-74
2023/06/23 06:16:42;;;;;;;25.13;22.63;;;20.90;99.90;;;;;;5030682;28;20470;-74
2023/06/23 06:19:08;;;;;;;24.55;20.80;;;21.00;99.90;;;;;;5031934;28;20037;-74
2023/06/23 06:21:36;;;;;;;23.77;19.70;;;21.00;99.90;;;;;;5031611;28;20034;-74
2023/06/23 06:24:04;;;;;;;18.10;16.35;;;21.10;99.90;;;;;;5032368;28;20370;-74
2023/06/23 06:26:29;;;;;;;15.50;13.95;;;21.10;99.90;;;;;;5032992;28;20068;-73
2023/06/23 06:28:58;;;;;;;15.70;13.77;;;21.20;99.90;;;;;;5012691;28;20046;-73
2023/06/23 06:31:25;;;;;;;17.42;14.80;;;21.20;99.90;;;;;;5033060;28;20022;-75
2023/06/23 06:33:53;;;;;;;21.08;18.67;;;21.20;99.90;;;;;;5032653;28;20049;-73
2023/06/23 06:36:21;;;;;;;20.98;18.70;;;21.30;99.90;;;;;;5031227;28;20104;-74
2023/06/23 06:38:49;;;;;;;18.63;14.85;;;21.40;99.90;;;;;;5029733;28;20064;-72
2023/06/23 06:41:16;;;;;;;16.65;14.60;;;21.50;99.90;;;;;;5031642;28;20077;-72
2023/06/23 06:43:42;;;;;;;18.23;14.73;;;21.50;99.90;;;;;;5032621;28;20332;-72
2023/06/23 06:46:11;;;;;;;15.52;13.98;;;21.60;99.90;;;;;;5032591;28;20557;-72
2023/06/23 06:48:38;;;;;;;15.88;14.13;;;21.60;99.90;;;;;;5013708;28;20416;-72
2023/06/23 06:51:05;;;;;;;19.27;14.85;;;21.60;99.90;;;;;;5036205;28;20470;-67
2023/06/23 06:53:31;;;;;;;16.45;12.82;;;21.70;99.90;;;;;;5036657;28;20017;-72
2023/06/23 06:55:58;;;;;;;17.45;13.00;;;21.70;99.80;;;;;;5036475;28;20075;-71
2023/06/23 06:58:23;;;;;;;17.00;13.07;;;21.80;99.60;;;;;;5033322;28;20028;-71
2023/06/23 07:00:49;;;;;;;14.27;12.80;;;21.80;99.50;;;;;;5036093;28;20021;-71
2023/06/23 07:03:15;;;;;;;12.85;11.43;;;21.90;99.30;;;;;;5033994;28;20401;-71
2023/06/23 07:05:41;;;;;;;11.02;9.93;;;21.90;99.00;;;;;;5023100;28;20507;-71
2023/06/23 07:08:07;;;;;;;11.98;10.55;;;22.00;98.80;;;;;;5032985;28;20100;-71
2023/06/23 07:10:34;;;;;;;14.55;11.18;;;22.00;98.50;;;;;;5032342;28;20021;-71
2023/06/23 07:13:00;;;;;;;13.00;9.90;;;22.10;98.30;;;;;;5034322;28;20034;-72
2023/06/23 07:15:26;;;;;;;11.55;9.90;;;22.10;98.30;;;;;;5032335;28;20083;-72
2023/06/23 07:17:51;;;;;;;11.65;9.23;;;22.20;98.20;;;;;;5015521;28;20014;-72
2023/06/23 07:20:17;;;;;;;9.50;8.50;;;22.20;98.10;;;;;;5029775;28;20474;-72
2023/06/23 07:22:43;;;;;;;10.63;9.43;;;22.30;98.00;;;;;;5035833;28;20466;-71
2023/06/23 07:25:09;;;;;;;9.48;8.57;;;22.30;97.90;;;;;;5032440;28;20440;-71
2023/06/23 07:27:35;;;;;;;10.52;9.05;;;22.40;97.70;;;;;;5035203;28;20018;-70
2023/06/23 07:30:00;;;;;;;11.70;9.00;;;22.40;97.60;;;;;;5029893;28;20045;-72
2023/06/23 07:32:26;;;;;;;13.32;9.30;;;22.40;97.50;;;;;;5023820;28;20121;-72
2023/06/23 07:34:52;;;;;;;9.23;8.35;;;22.50;97.50;;;;;;5032464;28;20038;-72
2023/06/23 07:37:17;;;;;;;13.68;9.52;;;22.50;97.30;;;;;;5031538;28;20021;-72
2023/06/23 07:39:43;;;;;;;10.32;9.20;;;22.50;97.30;;;;;;5034871;28;20037;-72
2023/06/23 07:42:09;;;;;;;13.60;10.40;;;22.60;97.20;;;;;;5034852;28;20025;-71
2023/06/23 07:44:38;;;;;;;16.40;10.95;;;22.60;97.20;;;;;;5032042;28;20041;-71
2023/06/23 07:47:04;;;;;;;15.73;10.45;;;22.70;97.10;;;;;;5030238;28;20038;-72
2023/06/23 07:49:30;;;;;;;14.18;10.18;;;22.80;97.00;;;;;;5035198;28;20041;-77
2023/06/23 07:52:04;;;;;;;15.55;9.40;;;22.80;96.90;;;;;;5034532;28;20021;-71
2023/06/23 07:54:30;;;;;;;13.10;9.95;;;22.90;96.90;;;;;;5031172;28;20104;-74
2023/06/23 07:56:56;;;;;;;13.75;10.32;;;22.90;96.80;;;;;;5032617;28;20144;-71
2023/06/23 07:59:22;;;;;;;15.48;9.75;;;22.90;96.80;;;;;;5028040;28;20033;-71
2023/06/23 08:01:48;;;;;;;13.88;9.27;;;23.00;96.70;;;;;;5027165;28;20021;-70
2023/06/23 08:04:14;;;;;;;9.32;8.40;;;23.10;96.60;;;;;;5010737;28;20072;-71
2023/06/23 08:06:39;;;;;;;12.00;9.18;;;23.10;96.50;;;;;;5035312;28;20083;-71
2023/06/23 08:09:06;;;;;;;11.15;9.20;;;23.20;96.60;;;;;;5032382;28;20033;-72
2023/06/23 08:11:31;;;;;;;12.55;8.82;;;23.20;96.50;;;;;;5028597;28;20043;-76
2023/06/23 08:14:02;;;;;;;12.38;8.40;;;23.20;96.40;;;;;;5032248;28;20109;-72
2023/06/23 08:16:28;;;;;;;13.02;8.13;;;23.30;96.30;;;;;;5014586;28;20029;-71
2023/06/23 08:18:54;;;;;;;10.48;8.15;;;23.30;96.30;;;;;;5028834;28;20072;-71
2023/06/23 08:21:20;;;;;;;11.35;7.90;;;23.40;96.10;;;;;;5033783;28;20497;-71
2023/06/23 08:23:47;;;;;;;10.27;8.18;;;23.40;96.10;;;;;;5030450;28;20049;-71
2023/06/23 08:26:13;;;;;;;8.35;7.47;;;23.40;96.00;;;;;;5034431;28;20026;-70
2023/06/23 08:28:39;;;;;;;10.80;6.88;;;23.50;95.90;;;;;;5034504;28;20029;-71
2023/06/23 08:31:05;;;;;;;9.27;7.05;;;23.50;95.90;;;;;;5034526;28;20056;-70
2023/06/23 08:33:35;;;;;;;9.07;6.88;;;23.60;95.80;;;;;;5033482;28;20029;-71
2023/06/23 08:36:02;;;;;;;8.38;7.20;;;23.60;95.70;;;;;;5034195;28;20060;-71
2023/06/23 08:38:28;;;;;;;9.00;6.78;;;23.70;95.70;;;;;;5015465;28;20041;-71
2023/06/23 08:40:54;;;;;;;10.77;6.30;;;23.70;95.60;;;;;;5034520;28;20029;-70
2023/06/23 08:43:25;;;;;;;9.98;6.35;;;23.80;95.50;;;;;;5035102;28;20025;-71
2023/06/23 08:46:02;;;;;;;9.18;6.50;;;23.80;95.40;;;;;;5034650;28;20051;-71
2023/06/23 08:48:30;;;;;;;8.85;6.40;;;23.80;95.30;;;;;;5034553;28;20029;-71
2023/06/23 08:50:59;;;;;;;8.88;6.13;;;23.90;95.20;;;;;;5033445;28;20387;-71
2023/06/23 08:53:27;;;;;;;7.20;5.80;;;23.90;95.00;;;;;;5033896;28;20029;-70
2023/06/23 08:55:54;;;;;;;6.43;5.68;;;24.00;95.00;;;;;;5034024;28;20530;-71
2023/06/23 08:58:23;;;;;;;6.07;5.15;;;24.00;94.80;;;;;;5034334;28;20025;-71
2023/06/23 09:00:53;;;;;;;6.80;5.60;;;24.10;94.80;;;;;;5034550;28;20394;-70
2023/06/23 09:03:23;;;;;;;5.45;4.18;;;24.10;94.70;;;;;;5015671;28;20030;-70
2023/06/23 09:05:49;;;;;;;7.72;5.03;;;24.10;94.70;;;;;;4996618;28;20062;-74
2023/06/23 09:08:15;;;;;;;6.65;4.90;;;24.10;94.50;;;;;;5032555;28;20033;-71
2023/06/23 09:10:42;;;;;;;6.65;4.30;;;24.20;94.40;;;;;;5027594;28;20035;-76
2023/06/23 09:13:16;;;;;;;7.00;4.32;;;24.20;94.30;;;;;;4995109;28;20058;-80
2023/06/23 09:15:45;;;;;;;4.93;3.75;;;24.30;94.30;;;;;;4996132;28;20364;-72
2023/06/23 09:18:13;;;;;;;5.20;3.60;;;24.30;94.50;;;;;;5024298;28;20029;-71
2023/06/23 09:20:42;;;;;;;7.28;4.55;;;24.30;94.20;;;;;;5025058;28;20444;-69
2023/06/23 09:23:11;;;;;;;8.27;3.50;;;24.40;94.10;;;;;;5030829;28;20021;-69
2023/06/23 09:25:43;;;;;;;6.07;4.00;;;24.40;94.10;;;;;;5032376;28;20037;-70
2023/06/23 09:28:30;;;;;;;5.78;3.45;;;24.40;94.10;;;;;;5030582;28;20025;-68
2023/06/23 09:31:06;;;;;;;4.28;3.20;;;24.40;94.00;;;;;;5013673;28;20083;-69
2023/06/23 09:33:32;;;;;;;5.38;3.28;;;24.40;94.00;;;;;;5031839;28;20026;-68
2023/06/23 09:36:04;;;;;;;4.70;3.42;;;24.50;93.90;;;;;;5029140;28;20095;-68
2023/06/23 09:38:34;;;;;;;;;;;24.50;93.90;;;;;;5014756;28;20116;-68
2023/06/23 09:41:11;;;;;;;6.50;3.10;;;24.50;93.80;;;;;;5014510;28;20290;-68
2023/06/23 09:43:45;;;;;;;4.68;2.85;;;24.60;93.80;;;;;;5032439;28;20026;-68
2023/06/23 09:46:13;;;;;;;5.70;3.10;;;24.60;93.80;;;;;;5031052;28;20491;-70
2023/06/23 09:48:40;;;;;;;4.78;2.90;;;24.60;93.80;;;;;;5032510;28;20104;-69
2023/06/23 09:51:06;;;;;;;5.05;2.90;;;24.60;93.80;;;;;;5032222;28;20025;-68
2023/06/23 09:53:36;;;;;;;73.97;15.20;;;24.70;93.70;;;;;;5030899;28;20033;-69
2023/06/23 09:56:03;;;;;;;9.95;6.03;;;24.70;93.50;;;;;;5031279;28;20070;-68
2023/06/23 09:58:39;;;;;;;5.78;3.95;;;24.80;93.40;;;;;;5028508;28;20022;-69
2023/06/23 10:01:08;;;;;;;4.75;3.90;;;24.90;93.30;;;;;;5028598;28;20481;-72
2023/06/23 10:03:54;;;;;;;6.30;4.20;;;24.90;93.50;;;;;;5023745;28;20017;-67
2023/06/23 10:06:22;;;;;;;4.15;3.75;;;24.90;93.60;;;;;;5005892;28;20402;-69
2023/06/23 10:08:50;;;;;;;4.80;2.45;;;25.00;93.40;;;;;;5030554;28;20041;-67
2023/06/23 10:11:18;;;;;;;7.63;3.17;;;25.00;93.30;;;;;;5030341;28;20037;-67
2023/06/23 10:13:47;;;;;;;5.00;4.25;;;25.00;93.30;;;;;;5015415;28;20017;-67
2023/06/23 10:16:13;;;;;;;5.88;4.38;;;25.10;92.40;;;;;;5029319;28;20017;-68
2023/06/23 10:18:41;;;;;;;6.00;4.72;;;25.10;92.30;;;;;;5028499;28;20025;-68
2023/06/23 10:21:07;;;;;;;7.20;5.50;;;25.30;91.40;;;;;;5027962;28;20513;-71
2023/06/23 10:23:34;;;;;;;7.05;3.65;;;25.30;91.10;;;;;;5027066;28;20113;-68
2023/06/23 10:26:02;;;;;;;5.72;3.10;;;25.30;92.00;;;;;;5013708;28;20029;-68
2023/06/23 10:28:30;;;;;;;3.80;2.60;;;25.30;92.40;;;;;;5012136;28;20033;-74
2023/06/23 10:30:58;;;;;;;5.22;3.20;;;25.30;92.60;;;;;;5032487;28;20034;-68
2023/06/23 10:33:25;;;;;;;3.70;2.42;;;25.30;92.50;;;;;;5030736;28;20029;-67
2023/06/23 10:35:53;;;;;;;3.85;2.40;;;25.30;92.70;;;;;;5028806;28;20453;-68
2023/06/23 10:38:23;;;;;;;5.65;2.75;;;25.30;92.60;;;;;;5030767;28;20026;-71
2023/06/23 10:40:51;;;;;;;4.07;2.80;;;25.30;92.60;;;;;;5028418;28;20030;-69
2023/06/23 10:43:22;;;;;;;4.88;2.42;;;25.30;92.50;;;;;;5032225;28;20386;-69
2023/06/23 10:45:49;;;;;;;4.75;2.92;;;25.30;92.50;;;;;;5013348;28;20026;-70
2023/06/23 10:48:16;;;;;;;5.03;3.78;;;25.30;92.50;;;;;;5011520;28;20030;-69
2023/06/23 10:50:42;;;;;;;6.78;3.75;;;25.30;92.20;;;;;;5026404;28;20043;-69
2023/06/23 10:53:15;;;;;;;10.10;5.07;;;25.30;92.30;;;;;;5029593;28;20483;-69
2023/06/23 10:55:46;;;;;;;10.30;4.90;;;25.30;92.50;;;;;;5026458;28;20021;-69
2023/06/23 10:58:18;;;;;;;13.27;5.68;;;25.30;92.60;;;;;;5032699;28;20104;-72
2023/06/23 11:00:46;;;;;;;13.27;5.25;;;25.30;92.50;;;;;;5031929;28;20026;-75
2023/06/23 11:03:33;;;;;;;8.93;4.90;;;25.40;92.80;;;;;;5032559;28;20105;-73
2023/06/23 11:06:04;;;;;;;8.63;5.10;;;25.40;92.40;;;;;;5029297;28;20021;-72
2023/06/23 11:08:31;;;;;;;9.18;4.60;;;25.40;92.20;;;;;;5030651;28;20443;-72
2023/06/23 11:10:59;;;;;;;8.52;4.35;;;25.50;92.20;;;;;;5030731;28;20026;-74
2023/06/23 11:13:50;;;;;;;9.15;5.03;;;25.50;92.20;;;;;;5016362;28;20088;-71
2023/06/23 11:16:28;;;;;;;8.57;4.85;;;25.50;92.10;;;;;;5018084;28;20468;-71
2023/06/23 11:18:57;;;;;;;8.88;4.75;;;25.50;92.00;;;;;;5025275;28;20033;-71
2023/06/23 11:21:30;;;;;;;7.47;4.25;;;25.50;92.00;;;;;;5018525;28;20025;-72
2023/06/23 11:24:17;;;;;;;11.43;4.70;;;25.50;92.00;;;;;;5011604;28;20030;-71
2023/06/23 11:26:55;;;;;;;7.18;4.35;;;25.50;92.00;;;;;;5012943;28;20491;-71
2023/06/23 11:29:22;;;;;;;7.50;4.38;;;25.50;91.80;;;;;;5010794;28;20045;-72
2023/06/23 11:32:10;;;;;;;7.75;3.97;;;25.50;91.80;;;;;;5012375;28;20046;-71
2023/06/23 11:37:13;;;;;;;5.35;3.78;;;25.60;91.50;;;;;;5565657;22;20053;-67
2023/06/23 11:39:39;;;;;;;7.50;3.53;;;25.50;91.70;;;;;;5059288;22;20044;-67
2023/06/23 11:42:05;;;;;;;4.78;3.92;;;25.50;91.70;;;;;;5043071;28;20120;-66
2023/06/23 11:44:31;;;;;;;5.38;4.00;;;25.60;91.40;;;;;;5051787;28;20104;-65
2023/06/23 11:46:56;;;;;;;8.70;3.67;;;25.60;91.40;;;;;;5053288;28;20017;-65
2023/06/23 11:49:23;;;;;;;5.47;3.55;;;25.60;91.30;;;;;;5052837;28;20416;-68
2023/06/23 11:51:49;;;;;;;5.65;3.47;;;25.60;91.30;;;;;;5039242;28;20043;-67
2023/06/23 11:54:16;;;;;;;4.30;3.10;;;25.70;91.10;;;;;;5053840;28;20469;-66
2023/06/23 11:56:42;;;;;;;3.83;3.25;;;25.70;91.10;;;;;;5049861;28;20029;-66
2023/06/23 11:59:10;;;;;;;5.22;3.28;;;25.70;90.80;;;;;;5046234;28;20033;-66
2023/06/23 12:01:36;;;;;;;3.50;2.90;;;25.70;90.80;;;;;;5048044;28;20013;-66
2023/06/23 12:04:05;;;;;;;3.42;2.67;;;25.70;90.80;;;;;;5034562;28;20023;-66
2023/06/23 12:06:35;;;;;;;4.47;2.85;;;25.70;90.90;;;;;;5047382;28;20112;-66
2023/06/23 12:09:02;;;;;;;3.50;2.67;;;25.70;90.80;;;;;;5039637;28;20049;-66
2023/06/23 12:11:29;;;;;;;4.10;2.90;;;25.70;90.70;;;;;;5051845;28;20370;-68
2023/06/23 12:13:57;;;;;;;4.45;3.00;;;25.70;90.60;;;;;;5054197;28;20025;-67
2023/06/23 12:16:23;;;;;;;4.85;3.92;;;25.70;90.70;;;;;;5052345;28;20020;-69
2023/06/23 12:18:51;;;;;;;6.05;2.92;;;25.80;90.50;;;;;;5050124;28;20096;-68
2023/06/23 12:21:19;;;;;;;3.70;2.95;;;25.80;90.70;;;;;;5047001;28;20014;-67
2023/06/23 12:23:45;;;;;;;4.00;2.50;;;25.80;90.70;;;;;;5050446;28;20017;-67
2023/06/23 12:26:20;;;;;;;2.80;2.15;;;25.70;90.70;;;;;;5048925;28;20036;-68
2023/06/23 12:28:49;;;;;;;4.75;2.67;;;25.80;90.70;;;;;;5047829;28;20493;-66
2023/06/23 12:31:27;;;;;;;5.22;3.20;;;25.80;90.70;;;;;;5045997;28;20029;-67
2023/06/23 12:33:54;;;;;;;5.30;4.07;;;25.80;90.40;;;;;;5044673;28;20029;-67
2023/06/23 12:36:20;;;;;;;3.78;3.38;;;25.90;90.00;;;;;;5045533;28;20025;-66
2023/06/23 12:38:53;;;;;;;3.47;2.50;;;25.90;90.30;;;;;;5048130;28;20032;-67
2023/06/23 12:41:26;;;;;;;3.25;2.20;;;25.90;90.40;;;;;;5015176;28;20029;-66
2023/06/23 12:43:59;;;;;;;4.72;3.33;;;25.90;90.50;;;;;;5019032;28;20103;-66
2023/06/23 12:46:26;;;;;;;6.63;3.75;;;25.90;90.50;;;;;;5023756;28;20028;-65
2023/06/23 12:48:55;;;;;;;6.28;3.50;;;25.90;90.50;;;;;;5027729;28;20579;-68